Time;durP1;ratioP1;P1;durP2;ratioP2;P2;SDS_P1;SDS_P2;PMS_P1;PMS_P2;Temp;Humidity;BMP_temperature;BMP_pressure;BME280_temperature;BME280_humidity;BME280_pressure;Samples;Min_cycle;Max_cycle;Signal;HPM_P1;HPM_P2
2022/03/21 00:01:43;;;;;;;21.50;14.75;;;;;8.70;102779.00;;;;4992990;28;20202;-76
2022/03/21 00:04:10;;;;;;;23.45;15.95;;;;;8.70;102784.00;;;;4988736;28;20213;-76
2022/03/21 00:06:38;;;;;;;22.00;15.75;;;;;8.70;102780.00;;;;4988333;28;20210;-76
2022/03/21 00:09:06;;;;;;;22.83;16.58;;;;;8.70;102785.00;;;;4988545;28;20205;-76
2022/03/21 00:11:33;;;;;;;20.25;15.05;;;;;8.70;102776.00;;;;4989130;28;20672;-76
2022/03/21 00:14:01;;;;;;;23.58;15.85;;;;;8.70;102774.00;;;;5000974;28;20232;-76
2022/03/21 00:16:28;;;;;;;20.92;15.57;;;;;8.70;102779.00;;;;4992979;28;20696;-76
2022/03/21 00:18:57;;;;;;;23.10;15.32;;;;;8.60;102786.00;;;;4988912;28;20218;-76
2022/03/21 00:21:24;;;;;;;22.73;16.10;;;;;8.60;102784.00;;;;4989542;28;20201;-76
2022/03/21 00:23:51;;;;;;;21.90;15.60;;;;;8.60;102784.00;;;;4988599;28;20236;-76
2022/03/21 00:26:19;;;;;;;25.02;16.40;;;;;8.60;102791.00;;;;4988044;28;20201;-76
2022/03/21 00:28:46;;;;;;;21.98;16.98;;;;;8.60;102794.00;;;;4978693;28;20205;-76
2022/03/21 00:31:13;;;;;;;22.10;16.33;;;;;8.60;102783.00;;;;5001864;28;20229;-76
2022/03/21 00:33:41;;;;;;;24.08;15.65;;;;;8.50;102784.00;;;;4992634;28;20292;-76
2022/03/21 00:36:10;;;;;;;22.48;16.00;;;;;8.50;102787.00;;;;4984394;28;20619;-76
2022/03/21 00:38:38;;;;;;;21.33;15.15;;;;;8.50;102785.00;;;;5005281;28;20198;-76
2022/03/21 00:41:06;;;;;;;21.95;15.25;;;;;8.50;102787.00;;;;4987919;28;20205;-76
2022/03/21 00:43:34;;;;;;;20.50;14.60;;;;;8.50;102780.00;;;;4988827;28;20201;-76
2022/03/21 00:46:01;;;;;;;21.90;15.93;;;;;8.50;102785.00;;;;4988354;28;20205;-77
2022/03/21 00:48:30;;;;;;;24.70;15.95;;;;;8.40;102792.00;;;;5004359;28;20201;-76
2022/03/21 00:50:59;;;;;;;21.33;15.35;;;;;8.40;102792.00;;;;5008437;28;20224;-76
2022/03/21 00:53:27;;;;;;;21.73;15.40;;;;;8.40;102790.00;;;;4996511;28;20202;-77
2022/03/21 00:55:55;;;;;;;20.08;14.95;;;;;8.40;102784.00;;;;4983495;28;20205;-76
2022/03/21 00:58:23;;;;;;;23.27;14.50;;;;;8.40;102798.00;;;;4988690;28;20244;-77
2022/03/21 01:00:50;;;;;;;21.13;14.63;;;;;8.40;102793.00;;;;4988374;28;20198;-76
2022/03/21 01:03:18;;;;;;;22.67;15.05;;;;;8.40;102795.00;;;;5003210;28;20213;-76
2022/03/21 01:05:45;;;;;;;20.05;13.95;;;;;8.30;102797.00;;;;4996572;28;20217;-76
2022/03/21 01:08:13;;;;;;;21.45;14.75;;;;;8.30;102791.00;;;;4999370;28;20201;-76
2022/03/21 01:10:41;;;;;;;21.08;14.88;;;;;8.30;102793.00;;;;4992340;28;20240;-76
2022/03/21 01:13:09;;;;;;;22.33;15.07;;;;;8.30;102784.00;;;;4992431;28;20210;-76
2022/03/21 01:15:36;;;;;;;23.52;15.55;;;;;8.30;102797.00;;;;4991660;28;20237;-76
2022/03/21 01:18:03;;;;;;;20.15;13.80;;;;;8.20;102801.00;;;;5000108;28;20205;-76
2022/03/21 01:20:31;;;;;;;21.38;15.25;;;;;8.20;102799.00;;;;5000679;28;20216;-77
2022/03/21 01:22:58;;;;;;;19.63;14.18;;;;;8.20;102800.00;;;;5003789;28;20268;-76
2022/03/21 01:25:26;;;;;;;20.50;13.93;;;;;8.20;102799.00;;;;4987518;28;20187;-76
2022/03/21 01:27:55;;;;;;;21.73;15.88;;;;;8.20;102804.00;;;;4992237;28;20244;-77
2022/03/21 01:30:22;;;;;;;22.27;14.98;;;;;8.20;102805.00;;;;4991454;28;20244;-76
2022/03/21 01:32:49;;;;;;;20.60;14.27;;;;;8.20;102811.00;;;;4992324;28;20189;-77
2022/03/21 01:35:18;;;;;;;23.50;14.52;;;;;8.20;102802.00;;;;4992348;28;20381;-77
2022/03/21 01:37:46;;;;;;;22.45;15.18;;;;;8.20;102795.00;;;;4995069;28;20202;-76
2022/03/21 01:40:15;;;;;;;21.83;14.85;;;;;8.20;102800.00;;;;4992417;28;20193;-77
2022/03/21 01:42:46;;;;;;;20.27;13.88;;;;;8.20;102800.00;;;;4988739;28;20305;-77
2022/03/21 01:45:15;;;;;;;21.25;15.48;;;;;8.20;102807.00;;;;5006252;28;20627;-76
2022/03/21 01:47:43;;;;;;;21.20;15.38;;;;;8.20;102807.00;;;;4991900;28;20954;-77
2022/03/21 01:50:11;;;;;;;20.52;14.50;;;;;8.20;102799.00;;;;4991213;28;20275;-77
2022/03/21 01:52:39;;;;;;;23.42;16.02;;;;;8.20;102810.00;;;;4992320;28;20209;-77
2022/03/21 01:57:53;;;;;;;22.40;14.38;;;;;8.20;102808.00;;;;4985313;28;20560;-77
2022/03/21 02:00:23;;;;;;;21.77;14.07;;;;;8.20;102805.00;;;;4991940;28;20202;-77
2022/03/21 02:02:50;;;;;;;21.67;14.98;;;;;8.20;102806.00;;;;4991588;28;20256;-77
2022/03/21 02:05:17;;;;;;;23.98;15.90;;;;;8.20;102808.00;;;;4990629;28;20198;-77
2022/03/21 02:07:45;;;;;;;23.48;15.48;;;;;8.20;102807.00;;;;4990161;28;20660;-77
2022/03/21 02:10:13;;;;;;;24.65;15.82;;;;;8.20;102805.00;;;;4991114;28;20213;-76
2022/03/21 02:12:41;;;;;;;23.67;15.50;;;;;8.20;102814.00;;;;4993167;28;20209;-77
2022/03/21 02:15:09;;;;;;;23.27;15.85;;;;;8.30;102809.00;;;;4985840;28;20221;-77
2022/03/21 02:17:43;;;;;;;22.58;15.90;;;;;8.20;102806.00;;;;4991490;28;20202;-76
2022/03/21 02:20:11;;;;;;;25.15;16.48;;;;;8.30;102808.00;;;;4989493;28;20206;-77
2022/03/21 02:22:52;;;;;;;22.23;15.23;;;;;8.20;102812.00;;;;4990255;28;20870;-76
2022/03/21 02:25:31;;;;;;;22.75;15.40;;;;;8.20;102811.00;;;;4984666;28;20663;-77
2022/03/21 02:28:01;;;;;;;23.92;15.38;;;;;8.30;102811.00;;;;4975464;28;20980;-76
2022/03/21 02:30:30;;;;;;;25.15;16.20;;;;;8.30;102813.00;;;;5003206;28;20232;-77
2022/03/21 02:33:00;;;;;;;22.00;15.30;;;;;8.30;102806.00;;;;4990494;28;20205;-76
2022/03/21 02:35:28;;;;;;;23.90;16.42;;;;;8.30;102815.00;;;;4992114;28;20193;-76
2022/03/21 02:37:57;;;;;;;21.35;15.40;;;;;8.30;102811.00;;;;4997223;28;20672;-76
2022/03/21 02:40:25;;;;;;;23.15;15.98;;;;;8.30;102810.00;;;;4990247;28;20735;-77
2022/03/21 02:42:53;;;;;;;21.77;15.35;;;;;8.30;102808.00;;;;4990025;28;20213;-77
2022/03/21 02:45:21;;;;;;;23.23;15.82;;;;;8.30;102812.00;;;;4990133;28;20197;-76
2022/03/21 02:47:48;;;;;;;23.77;17.42;;;;;8.30;102817.00;;;;4993419;28;20587;-76
2022/03/21 02:50:19;;;;;;;24.77;16.10;;;;;8.20;102813.00;;;;4990307;28;20229;-76
2022/03/21 02:52:49;;;;;;;23.00;16.60;;;;;8.20;102810.00;;;;4989917;28;20288;-76
2022/03/21 02:55:16;;;;;;;24.60;15.55;;;;;8.20;102812.00;;;;4989804;28;20293;-77
2022/03/21 02:57:43;;;;;;;22.65;15.30;;;;;8.20;102814.00;;;;4989803;28;20193;-77
2022/03/21 03:00:13;;;;;;;20.52;15.05;;;;;8.20;102814.00;;;;4989388;28;20198;-76
2022/03/21 03:02:40;;;;;;;24.55;16.33;;;;;8.20;102827.00;;;;4991138;28;20686;-77
2022/03/21 03:05:11;;;;;;;23.08;15.63;;;;;8.20;102823.00;;;;4993244;28;20218;-77
2022/03/21 03:07:38;;;;;;;24.02;16.77;;;;;8.20;102826.00;;;;4990099;28;20224;-77
2022/03/21 03:10:06;;;;;;;26.08;16.90;;;;;8.20;102828.00;;;;4988957;28;20397;-77
2022/03/21 03:12:33;;;;;;;21.95;15.05;;;;;8.20;102827.00;;;;4990461;28;20224;-77
2022/03/21 03:15:00;;;;;;;24.13;17.15;;;;;8.20;102828.00;;;;4989146;28;20229;-77
2022/03/21 03:17:29;;;;;;;23.50;16.08;;;;;8.20;102828.00;;;;4990002;28;20194;-77
2022/03/21 03:19:56;;;;;;;24.80;16.10;;;;;8.20;102822.00;;;;4992453;28;20211;-77
2022/03/21 03:22:26;;;;;;;26.42;17.02;;;;;8.10;102820.00;;;;4991694;28;20255;-76
2022/03/21 03:24:53;;;;;;;23.02;15.57;;;;;8.10;102809.00;;;;4989037;28;20202;-77
2022/03/21 03:27:21;;;;;;;21.45;15.50;;;;;8.10;102822.00;;;;4989783;28;20201;-76
2022/03/21 03:29:48;;;;;;;24.17;14.32;;;;;8.10;102821.00;;;;4989801;28;20868;-76
2022/03/21 03:32:15;;;;;;;25.02;16.65;;;;;8.10;102826.00;;;;4989704;28;20230;-78
2022/03/21 03:34:44;;;;;;;22.75;14.10;;;;;8.10;102831.00;;;;4977807;28;20253;-76
2022/03/21 03:37:11;;;;;;;23.88;15.48;;;;;8.10;102834.00;;;;4998196;28;20209;-77
2022/03/21 03:39:39;;;;;;;22.80;15.05;;;;;8.10;102831.00;;;;4989958;28;20202;-76
2022/03/21 03:42:07;;;;;;;23.77;16.13;;;;;8.10;102840.00;;;;4988094;28;20276;-77
2022/03/21 03:44:34;;;;;;;24.15;16.33;;;;;8.10;102838.00;;;;4988812;28;20289;-77
2022/03/21 03:47:01;;;;;;;21.95;15.13;;;;;8.00;102834.00;;;;4988954;28;20194;-77
2022/03/21 03:49:29;;;;;;;25.05;15.95;;;;;8.00;102839.00;;;;4989038;28;20194;-77
2022/03/21 03:51:57;;;;;;;25.02;15.95;;;;;8.00;102836.00;;;;4989243;28;20229;-77
2022/03/21 03:54:25;;;;;;;21.63;14.65;;;;;8.00;102840.00;;;;4980070;28;20202;-77
2022/03/21 03:56:52;;;;;;;21.90;15.45;;;;;8.00;102837.00;;;;4989375;28;20828;-77
2022/03/21 03:59:19;;;;;;;24.30;15.50;;;;;8.00;102838.00;;;;4988765;28;20608;-76
2022/03/21 04:01:46;;;;;;;21.20;14.85;;;;;8.00;102838.00;;;;4989231;28;20206;-77
2022/03/21 04:04:14;;;;;;;23.60;15.93;;;;;8.00;102836.00;;;;4991308;28;20225;-77
2022/03/21 04:06:41;;;;;;;22.02;14.88;;;;;8.00;102839.00;;;;5001757;28;20221;-77
2022/03/21 04:09:09;;;;;;;21.88;14.98;;;;;8.00;102833.00;;;;4989059;28;20193;-76
2022/03/21 04:11:37;;;;;;;21.98;14.75;;;;;8.00;102834.00;;;;5000458;28;20224;-77
2022/03/21 04:14:07;;;;;;;23.73;15.20;;;;;7.90;102834.00;;;;4997779;28;20205;-77
2022/03/21 04:16:35;;;;;;;25.35;15.95;;;;;7.90;102839.00;;;;4989699;28;20198;-76
2022/03/21 04:19:03;;;;;;;22.13;15.20;;;;;7.90;102841.00;;;;4985918;28;20202;-77
2022/03/21 04:21:30;;;;;;;23.20;15.00;;;;;7.90;102840.00;;;;4987524;28;20198;-76
2022/03/21 04:23:58;;;;;;;29.90;16.98;;;;;7.90;102836.00;;;;4988582;28;20201;-76
2022/03/21 04:26:26;;;;;;;23.23;16.17;;;;;7.90;102835.00;;;;4988312;28;20190;-76
2022/03/21 04:28:55;;;;;;;25.52;15.40;;;;;7.90;102828.00;;;;4999570;28;20209;-76
2022/03/21 04:31:22;;;;;;;25.30;17.02;;;;;7.90;102833.00;;;;4989044;28;20237;-77
2022/03/21 04:33:50;;;;;;;22.60;15.88;;;;;7.90;102829.00;;;;4984969;28;20248;-76
2022/03/21 04:36:19;;;;;;;30.00;17.35;;;;;7.90;102835.00;;;;4995758;28;20197;-76
2022/03/21 04:38:46;;;;;;;24.88;15.88;;;;;7.90;102831.00;;;;4988464;28;20206;-77
2022/03/21 04:41:13;;;;;;;24.95;16.50;;;;;7.90;102842.00;;;;4988210;28;21097;-77
2022/03/21 04:43:42;;;;;;;24.90;16.50;;;;;7.90;102844.00;;;;4988692;28;20201;-77
2022/03/21 04:46:10;;;;;;;25.73;15.95;;;;;8.00;102851.00;;;;5001182;28;20866;-77
2022/03/21 04:48:37;;;;;;;21.65;14.93;;;;;8.00;102841.00;;;;4992329;28;20287;-76
2022/03/21 04:51:04;;;;;;;24.08;15.57;;;;;7.90;102847.00;;;;4992129;28;20217;-77
2022/03/21 04:53:31;;;;;;;29.38;16.75;;;;;8.00;102847.00;;;;4992395;28;20204;-76
2022/03/21 04:55:59;;;;;;;23.65;15.77;;;;;8.00;102849.00;;;;4992186;28;20197;-76
2022/03/21 04:58:26;;;;;;;23.60;15.65;;;;;7.90;102850.00;;;;4992267;28;20829;-76
2022/03/21 05:00:55;;;;;;;25.58;16.60;;;;;7.90;102849.00;;;;4991680;28;20715;-76
2022/03/21 05:03:22;;;;;;;23.75;15.18;;;;;7.90;102851.00;;;;4992352;28;20201;-77
2022/03/21 05:05:49;;;;;;;23.45;15.18;;;;;8.00;102849.00;;;;4991411;28;20214;-76
2022/03/21 05:08:17;;;;;;;25.00;15.23;;;;;7.90;102855.00;;;;4991348;28;20825;-76
2022/03/21 05:10:44;;;;;;;25.45;16.38;;;;;7.90;102855.00;;;;4985320;28;20305;-77
2022/03/21 05:13:12;;;;;;;20.13;14.48;;;;;7.90;102857.00;;;;4991162;28;20625;-76
2022/03/21 05:15:39;;;;;;;23.67;15.35;;;;;7.90;102854.00;;;;4991868;28;20712;-76
2022/03/21 05:18:08;;;;;;;26.48;15.75;;;;;7.90;102845.00;;;;4991261;28;20256;-76
2022/03/21 05:20:36;;;;;;;26.63;16.45;;;;;7.90;102849.00;;;;4994542;28;20197;-76
2022/03/21 05:31:16;;;;;;;20.33;14.05;;;;;7.80;102858.00;;;;4980911;28;20240;-77
2022/03/21 05:36:38;;;;;;;22.38;14.52;;;;;7.80;102870.00;;;;4968872;28;20336;-76
2022/03/21 05:39:06;;;;;;;21.77;14.10;;;;;7.80;102862.00;;;;4988712;28;20691;-76
2022/03/21 05:41:34;;;;;;;23.38;14.95;;;;;7.80;102859.00;;;;4992762;28;20193;-76
2022/03/21 05:44:01;;;;;;;23.50;14.20;;;;;7.80;102859.00;;;;4990434;28;20638;-76
2022/03/21 05:46:28;;;;;;;24.95;15.35;;;;;7.80;102876.00;;;;4991496;28;20227;-76
2022/03/21 05:48:59;;;;;;;25.70;14.40;;;;;7.80;102869.00;;;;4991385;28;20679;-75
2022/03/21 05:51:29;;;;;;;22.13;14.90;;;;;7.80;102864.00;;;;4990856;28;20217;-76
2022/03/21 05:53:58;;;;;;;21.73;14.05;;;;;7.80;102869.00;;;;5001448;28;20667;-76
2022/03/21 05:56:27;;;;;;;20.40;13.18;;;;;7.80;102869.00;;;;4971907;28;20199;-76
2022/03/21 05:58:56;;;;;;;20.25;13.38;;;;;7.80;102866.00;;;;4991438;28;20202;-76
2022/03/21 06:01:24;;;;;;;21.23;14.07;;;;;7.90;102881.00;;;;4996780;28;20193;-76
2022/03/21 06:03:53;;;;;;;21.02;13.82;;;;;7.90;102875.00;;;;4993451;28;20197;-76
2022/03/21 06:06:22;;;;;;;21.30;12.32;;;;;7.90;102878.00;;;;4994298;28;20292;-76
2022/03/21 06:08:50;;;;;;;23.20;14.07;;;;;7.90;102878.00;;;;5012864;28;20344;-77
2022/03/21 06:11:17;;;;;;;22.10;13.45;;;;;7.90;102882.00;;;;5006035;28;20226;-76
2022/03/21 06:13:45;;;;;;;21.63;13.50;;;;;8.00;102879.00;;;;4989616;28;20209;-76
2022/03/21 06:16:14;;;;;;;21.70;12.98;;;;;8.00;102883.00;;;;4991188;28;21118;-76
2022/03/21 06:18:41;;;;;;;37.72;27.10;;;;;8.00;102898.00;;;;4992645;28;20445;-77
2022/03/21 06:21:10;;;;;;;28.00;18.30;;;;;8.20;102898.00;;;;4991903;28;20202;-77
2022/03/21 06:23:39;;;;;;;21.88;14.77;;;;;8.20;102899.00;;;;4993404;28;20660;-76
2022/03/21 06:26:08;;;;;;;19.48;13.32;;;;;8.20;102902.00;;;;4993063;28;20193;-77
2022/03/21 06:28:36;;;;;;;18.75;12.88;;;;;8.30;102891.00;;;;5005261;28;20197;-76
2022/03/21 06:31:04;;;;;;;20.00;13.18;;;;;8.30;102907.00;;;;4999631;28;20272;-77
2022/03/21 06:33:32;;;;;;;18.73;12.48;;;;;8.40;102901.00;;;;4986736;28;20671;-76
2022/03/21 06:36:02;;;;;;;19.70;13.38;;;;;8.40;102913.00;;;;4991161;28;20194;-76
2022/03/21 06:38:31;;;;;;;17.83;11.68;;;;;8.50;102912.00;;;;4988717;28;20194;-76
2022/03/21 06:41:00;;;;;;;19.75;12.57;;;;;8.60;102904.00;;;;4991009;28;20656;-76
2022/03/21 06:43:28;;;;;;;19.13;12.48;;;;;8.60;102917.00;;;;4990336;28;20615;-76
2022/03/21 06:45:56;;;;;;;19.58;12.98;;;;;8.70;102918.00;;;;5006454;28;20205;-76
2022/03/21 06:48:25;;;;;;;15.93;11.38;;;;;8.80;102926.00;;;;4990952;28;20205;-75
2022/03/21 06:50:55;;;;;;;18.83;11.27;;;;;8.90;102928.00;;;;4990585;28;20204;-76
2022/03/21 06:53:23;;;;;;;20.30;13.00;;;;;8.90;102923.00;;;;4973275;28;20317;-77
2022/03/21 06:55:50;;;;;;;19.05;12.35;;;;;9.00;102930.00;;;;4990269;28;20213;-77
2022/03/21 06:58:19;;;;;;;17.35;11.35;;;;;9.10;102923.00;;;;4991096;28;20198;-75
2022/03/21 07:00:47;;;;;;;19.15;11.32;;;;;9.20;102934.00;;;;4992115;28;21467;-78
2022/03/21 07:03:16;;;;;;;16.88;10.80;;;;;9.30;102926.00;;;;4990412;28;20213;-76
2022/03/21 07:05:44;;;;;;;16.67;10.35;;;;;9.40;102926.00;;;;4983328;28;20217;-76
2022/03/21 07:08:11;;;;;;;16.67;10.07;;;;;9.50;102927.00;;;;4989461;28;20567;-76
2022/03/21 07:10:40;;;;;;;14.70;10.05;;;;;9.60;102934.00;;;;4990010;28;20216;-76
2022/03/21 07:13:07;;;;;;;15.45;10.18;;;;;9.70;102930.00;;;;4989913;28;20221;-76
2022/03/21 07:15:37;;;;;;;16.83;10.90;;;;;9.80;102938.00;;;;4988441;28;20232;-76
2022/03/21 07:18:04;;;;;;;15.93;10.27;;;;;9.90;102939.00;;;;4989163;28;20213;-76
2022/03/21 07:20:31;;;;;;;17.75;11.75;;;;;10.00;102939.00;;;;4995047;28;20194;-76
2022/03/21 07:22:59;;;;;;;17.13;9.95;;;;;10.10;102942.00;;;;4989707;28;20216;-76
2022/03/21 07:25:27;;;;;;;13.85;9.77;;;;;10.20;102946.00;;;;4989522;28;20193;-76
2022/03/21 07:27:54;;;;;;;13.65;8.38;;;;;10.30;102942.00;;;;4989716;28;20198;-76
2022/03/21 07:30:22;;;;;;;14.52;9.15;;;;;10.50;102950.00;;;;4989252;28;20194;-76
2022/03/21 07:32:51;;;;;;;13.80;9.45;;;;;10.60;102951.00;;;;4990110;28;20240;-76
2022/03/21 07:35:18;;;;;;;15.88;9.32;;;;;10.70;102951.00;;;;4994925;28;20213;-76
2022/03/21 07:37:47;;;;;;;15.88;9.00;;;;;10.80;102954.00;;;;4989573;28;20213;-76
2022/03/21 07:40:15;;;;;;;12.63;8.35;;;;;11.00;102956.00;;;;4989286;28;20198;-77
2022/03/21 07:42:44;;;;;;;11.88;8.85;;;;;11.10;102954.00;;;;4989077;28;20205;-76
2022/03/21 07:47:59;;;;;;;12.18;8.32;;;;;11.40;102964.00;;;;4989292;28;20232;-76
2022/03/21 07:50:27;;;;;;;14.40;8.70;;;;;11.50;102966.00;;;;4989807;28;20289;-76
2022/03/21 07:52:56;;;;;;;13.50;9.50;;;;;11.60;102960.00;;;;5000514;28;20267;-76
2022/03/21 07:55:24;;;;;;;14.27;8.55;;;;;11.70;102964.00;;;;4992857;28;20288;-76
2022/03/21 07:57:52;;;;;;;15.40;8.75;;;;;11.90;102961.00;;;;4988333;28;20193;-78
2022/03/21 08:00:19;;;;;;;15.38;9.20;;;;;12.00;102968.00;;;;4990961;28;20216;-78
2022/03/21 08:02:46;;;;;;;14.23;9.02;;;;;12.10;102971.00;;;;4996164;28;20197;-77
2022/03/21 08:05:16;;;;;;;13.20;8.60;;;;;12.20;102962.00;;;;4995023;28;20198;-77
2022/03/21 08:07:43;;;;;;;14.20;9.57;;;;;12.40;102970.00;;;;4992795;28;20221;-76
2022/03/21 08:10:12;;;;;;;17.42;8.93;;;;;12.50;102971.00;;;;4995439;28;20201;-76
2022/03/21 08:12:42;;;;;;;13.88;8.45;;;;;12.60;102975.00;;;;4992991;28;20609;-76
2022/03/21 08:15:11;;;;;;;13.27;8.70;;;;;12.70;102977.00;;;;4991994;28;20272;-76
2022/03/21 08:17:52;;;;;;;13.68;8.73;;;;;12.80;102975.00;;;;5001038;28;20198;-76
2022/03/21 08:20:21;;;;;;;16.55;8.25;;;;;13.00;102978.00;;;;4995936;28;20197;-76
2022/03/21 08:22:48;;;;;;;12.45;8.70;;;;;13.10;102986.00;;;;4989921;28;20687;-75
2022/03/21 08:25:16;;;;;;;12.88;8.70;;;;;13.20;102978.00;;;;4990898;28;20667;-76
2022/03/21 08:27:44;;;;;;;14.60;9.48;;;;;13.30;102982.00;;;;4998117;28;20204;-76
2022/03/21 08:30:13;;;;;;;11.25;8.60;;;;;13.40;102983.00;;;;4986330;28;20288;-76
2022/03/21 08:32:40;;;;;;;11.73;8.13;;;;;13.60;102973.00;;;;4991733;28;20221;-76
2022/03/21 08:35:08;;;;;;;12.27;7.75;;;;;13.70;102978.00;;;;4983586;28;20205;-75
2022/03/21 08:37:37;;;;;;;11.50;7.78;;;;;13.80;102989.00;;;;4988815;28;20193;-76
2022/03/21 08:40:06;;;;;;;10.95;7.82;;;;;13.90;102981.00;;;;4993665;28;20202;-77
2022/03/21 08:42:33;;;;;;;11.43;8.13;;;;;14.00;102978.00;;;;4991660;28;20208;-76
2022/03/21 08:45:01;;;;;;;14.02;9.52;;;;;14.20;102981.00;;;;4988955;28;20202;-77
2022/03/21 08:47:29;;;;;;;15.13;9.45;;;;;14.30;102986.00;;;;4988455;28;20204;-77
2022/03/21 08:49:57;;;;;;;11.93;9.13;;;;;14.40;102981.00;;;;4991231;28;20292;-76
2022/03/21 08:52:24;;;;;;;10.73;8.18;;;;;14.50;102978.00;;;;4989097;28;20225;-75
2022/03/21 08:54:52;;;;;;;13.82;9.40;;;;;14.60;102972.00;;;;4996057;28;20201;-75
2022/03/21 08:57:20;;;;;;;12.65;9.02;;;;;14.70;102979.00;;;;4987927;28;20251;-75
2022/03/21 08:59:47;;;;;;;13.25;8.40;;;;;14.80;102975.00;;;;4989686;28;20202;-76
2022/03/21 09:02:17;;;;;;;13.68;8.10;;;;;14.90;102981.00;;;;4989914;28;20284;-76
2022/03/21 09:04:44;;;;;;;14.82;8.57;;;;;15.10;102970.00;;;;4988935;28;20194;-75
2022/03/21 09:07:13;;;;;;;10.73;7.80;;;;;15.20;102976.00;;;;4991431;28;20213;-75
2022/03/21 09:09:41;;;;;;;13.43;7.82;;;;;15.30;102972.00;;;;4999907;28;20233;-76
2022/03/21 09:12:12;;;;;;;11.18;7.68;;;;;15.40;102973.00;;;;4997553;28;20261;-76
2022/03/21 09:14:39;;;;;;;12.43;8.05;;;;;15.50;102971.00;;;;4986805;28;20305;-77
2022/03/21 09:17:06;;;;;;;9.75;7.25;;;;;15.60;102968.00;;;;4999225;28;20570;-76
2022/03/21 09:19:34;;;;;;;12.57;8.32;;;;;15.80;102971.00;;;;4988652;28;20217;-76
2022/03/21 09:22:02;;;;;;;11.50;7.72;;;;;15.90;102973.00;;;;4989073;28;20671;-76
2022/03/21 09:24:29;;;;;;;11.20;7.28;;;;;16.00;102973.00;;;;4989183;28;20200;-77
2022/03/21 09:26:57;;;;;;;12.63;8.05;;;;;16.10;102969.00;;;;4988253;28;20244;-77
2022/03/21 09:29:25;;;;;;;9.90;6.78;;;;;16.20;102972.00;;;;4986556;28;20205;-77
2022/03/21 09:31:53;;;;;;;12.00;8.90;;;;;16.40;102971.00;;;;4990273;28;20296;-76
2022/03/21 09:34:20;;;;;;;11.32;7.82;;;;;16.50;102976.00;;;;4998175;28;20749;-77
2022/03/21 09:36:50;;;;;;;12.75;8.73;;;;;16.60;102969.00;;;;5004346;28;20264;-76
2022/03/21 09:39:17;;;;;;;12.20;7.30;;;;;16.70;102971.00;;;;5008567;28;20202;-75
2022/03/21 09:41:46;;;;;;;14.13;9.02;;;;;16.90;102971.00;;;;4992362;28;20194;-76
2022/03/21 09:44:14;;;;;;;11.13;7.85;;;;;17.00;102970.00;;;;4992319;28;20210;-76
2022/03/21 09:46:45;;;;;;;12.38;8.45;;;;;17.10;102963.00;;;;4991902;28;20657;-76
2022/03/21 09:49:15;;;;;;;14.52;8.00;;;;;17.30;102976.00;;;;4993661;28;20311;-76
2022/03/21 09:51:43;;;;;;;13.63;9.48;;;;;17.40;102974.00;;;;5008305;28;20570;-76
2022/03/21 09:54:10;;;;;;;13.32;8.38;;;;;17.50;102973.00;;;;4994031;28;20867;-76
2022/03/21 09:56:38;;;;;;;12.15;7.55;;;;;17.70;102963.00;;;;4994333;28;20240;-76
2022/03/21 09:59:05;;;;;;;14.85;8.00;;;;;17.80;102968.00;;;;4992354;28;20201;-76
2022/03/21 10:01:36;;;;;;;14.18;9.05;;;;;17.90;102963.00;;;;4992535;28;20201;-78
2022/03/21 10:04:06;;;;;;;13.77;8.88;;;;;18.00;102963.00;;;;4994438;28;20252;-78
2022/03/21 10:06:35;;;;;;;12.68;8.30;;;;;18.10;102965.00;;;;4994691;28;20224;-76
2022/03/21 10:09:08;;;;;;;10.77;8.07;;;;;18.20;102958.00;;;;4997756;28;20225;-75
2022/03/21 10:11:36;;;;;;;11.73;8.00;;;;;18.40;102954.00;;;;4990380;28;20204;-75
2022/03/21 10:14:29;;;;;;;11.35;7.95;;;;;18.50;102962.00;;;;4990158;28;20236;-76
2022/03/21 10:16:58;;;;;;;10.98;8.13;;;;;18.70;102953.00;;;;4994548;28;20193;-76
2022/03/21 10:19:40;;;;;;;10.88;7.80;;;;;18.80;102963.00;;;;4994894;28;20204;-76
2022/03/21 10:22:11;;;;;;;11.23;8.23;;;;;18.90;102962.00;;;;5001004;28;20197;-77
2022/03/21 10:24:40;;;;;;;9.70;7.13;;;;;19.00;102960.00;;;;4997212;28;20200;-77
2022/03/21 10:27:25;;;;;;;12.15;7.97;;;;;19.10;102955.00;;;;4997064;28;20311;-76
2022/03/21 10:29:59;;;;;;;11.15;7.47;;;;;19.20;102961.00;;;;4998624;28;20200;-76
2022/03/21 10:32:51;;;;;;;10.65;7.57;;;;;19.30;102963.00;;;;4995271;28;20209;-76
2022/03/21 10:35:22;;;;;;;12.10;7.60;;;;;19.40;102964.00;;;;4994306;28;20561;-75
2022/03/21 10:37:51;;;;;;;9.40;7.35;;;;;19.60;102955.00;;;;4994206;28;20264;-74
2022/03/21 10:40:21;;;;;;;10.52;7.50;;;;;19.70;102959.00;;;;4994846;28;20209;-75
2022/03/21 10:42:55;;;;;;;11.77;6.82;;;;;19.70;102962.00;;;;4986214;28;20206;-75
2022/03/21 10:45:23;;;;;;;9.45;6.50;;;;;19.90;102958.00;;;;4988574;28;20276;-76
2022/03/21 10:47:51;;;;;;;10.38;7.65;;;;;20.00;102957.00;;;;4991672;28;20293;-76
2022/03/21 10:50:30;;;;;;;14.63;8.35;;;;;20.00;102964.00;;;;4991404;28;20201;-76
2022/03/21 10:53:05;;;;;;;11.48;7.78;;;;;20.10;102958.00;;;;4991013;28;20216;-75
2022/03/21 10:55:32;;;;;;;10.93;8.43;;;;;20.30;102948.00;;;;4991195;28;20217;-77
2022/03/21 10:58:01;;;;;;;12.65;7.60;;;;;20.40;102945.00;;;;4989190;28;20209;-76
2022/03/21 11:00:30;;;;;;;10.93;7.72;;;;;20.50;102951.00;;;;4995344;28;20194;-76
2022/03/21 11:03:00;;;;;;;12.40;7.63;;;;;20.60;102953.00;;;;4984645;28;20198;-76
2022/03/21 11:05:31;;;;;;;24.30;7.95;;;;;20.60;102948.00;;;;4997635;28;20212;-75
2022/03/21 11:07:58;;;;;;;10.18;6.95;;;;;20.70;102949.00;;;;4984909;28;20276;-76
2022/03/21 11:10:27;;;;;;;9.88;7.30;;;;;20.80;102951.00;;;;4994575;28;20555;-75
2022/03/21 11:12:56;;;;;;;9.18;6.88;;;;;20.90;102943.00;;;;4997204;28;20228;-76
2022/03/21 11:15:25;;;;;;;12.70;8.20;;;;;20.90;102944.00;;;;4991557;28;20264;-76
2022/03/21 11:17:53;;;;;;;11.48;7.50;;;;;21.00;102946.00;;;;5005176;28;20194;-76
2022/03/21 11:20:20;;;;;;;10.65;7.00;;;;;21.10;102947.00;;;;4992579;28;20743;-76
2022/03/21 11:22:49;;;;;;;11.02;7.95;;;;;21.20;102948.00;;;;4979140;28;20284;-75
2022/03/21 11:25:17;;;;;;;11.27;7.53;;;;;21.30;102949.00;;;;4992159;28;20201;-75
2022/03/21 11:28:19;;;;;;;10.68;7.47;;;;;21.30;102952.00;;;;4992455;28;20632;-75
2022/03/21 11:31:05;;;;;;;15.48;7.03;;;;;21.40;102944.00;;;;4994442;28;20200;-75
2022/03/21 11:33:40;;;;;;;10.90;8.25;;;;;21.50;102946.00;;;;4994380;28;20228;-75
2022/03/21 11:36:09;;;;;;;10.18;7.20;;;;;21.50;102942.00;;;;4993040;28;20197;-75
2022/03/21 11:38:41;;;;;;;10.15;7.75;;;;;21.60;102936.00;;;;4991964;28;20201;-75
2022/03/21 11:41:11;;;;;;;10.73;7.43;;;;;21.70;102935.00;;;;4992586;28;20221;-74
2022/03/21 11:43:39;;;;;;;11.30;7.80;;;;;21.70;102941.00;;;;4990948;28;20318;-75
2022/03/21 11:46:29;;;;;;;12.60;7.90;;;;;21.70;102933.00;;;;4990685;28;20197;-74
2022/03/21 11:48:58;;;;;;;13.02;7.38;;;;;21.90;102937.00;;;;4980904;28;20285;-75
2022/03/21 11:51:44;;;;;;;11.88;7.38;;;;;21.90;102929.00;;;;4991637;28;20205;-74
2022/03/21 11:54:28;;;;;;;10.93;7.35;;;;;21.90;102940.00;;;;4991386;28;20225;-74
2022/03/21 11:57:01;;;;;;;12.68;8.05;;;;;22.10;102932.00;;;;4988511;28;20201;-74
2022/03/21 11:59:58;;;;;;;9.48;6.82;;;;;22.00;102927.00;;;;4993564;28;20201;-75
2022/03/21 12:02:55;;;;;;;11.05;6.53;;;;;22.10;102926.00;;;;4991850;28;20243;-74
2022/03/21 12:05:52;;;;;;;12.05;7.43;;;;;22.20;102928.00;;;;4989775;28;20201;-75
2022/03/21 12:08:50;;;;;;;10.05;7.50;;;;;22.30;102928.00;;;;4996038;28;20220;-76
2022/03/21 12:12:00;;;;;;;10.07;6.90;;;;;22.30;102927.00;;;;4989627;28;20678;-76
2022/03/21 12:14:43;;;;;;;8.35;6.93;;;;;22.40;102923.00;;;;4989071;28;22547;-75
2022/03/21 12:17:29;;;;;;;10.45;8.40;;;;;22.50;102916.00;;;;4988977;28;20204;-76
2022/03/21 12:20:08;;;;;;;9.13;6.85;;;;;22.60;102925.00;;;;4990087;28;20185;-76
2022/03/21 12:22:37;;;;;;;8.77;6.97;;;;;22.70;102929.00;;;;4990651;28;20201;-76
2022/03/21 12:25:06;;;;;;;11.20;8.20;;;;;22.80;102921.00;;;;4989345;28;20294;-76
2022/03/21 12:27:38;;;;;;;13.48;8.27;;;;;22.80;102919.00;;;;4989654;28;20189;-76